Hovedside
METAR-TAF:

METAR-TAF

Lufthavner :

Örebro, Sverige

breddegrad: 59-14N, lengdegrad: 015-03E, høyde over havet: 57 m

Gjeldene værobservasjon

Denne rapporten ble laget for 19 minutter siden, klokken 04:20 UTC
Vind 8 kt fra Sørvest
Temperatur 2°C
Luftfuktighet 93%
Trykk 990 hPa
Sikt 10 km eller mer
Brutte skyer i en høyde av 1000 ft
Overskyet i en høyde av 1200 ft

METAR: ESOE 250420Z 22008KT 9999 BKN010 OVC012 02/01 Q0990

Tid: 06:39 (04:39 UTC)

Varsel

Denne rapporten ble laget for 2 timer og 9 minutter siden, klokken 02:30 UTC
Varsel gyldig fra 25. klokken 03 UTC til 25. klokken 12 UTC
Vind 8 kt fra Vest-sørvest
Sikt 10 km eller mer
Brutte skyer i en høyde av 3000 ft
Sannsynlighet 40%
fra 25. klokken 03 UTC til 25. klokken 12 UTC
Sikt: 2500 m
Brutte skyer i en høyde av 700 ft
lett snø, regn

TAF: ESOE 250230Z 2503/2512 24008KT 9999 BKN030 PROB40 2503/2512 2500 -SNRA BKN007

Værobservasjoner og værvarsel for over 4000 flyplasser (METAR- og TAF-rapporter).

Tilgjengelige stasjoner er representert av de røde og gule prikkene på kartet.

Hold musepekeren over prikken for å se navnet på stasjonen.

Klikk så for å se værobservasjoner og -varsler.

For å forandre kartet kan du klikke på den grønne knappen med svart kryss for å zoome inn, på den grønne knappen med strek for å zoome ut, eller på de grønne pilene for å se tilstøtende kart.


METAR-TAF: